sensor_id;sensor_type;location;lat;lon;timestamp;temperature;humidity
46932;DHT22;32670;51.464;11.964;2023-08-12T00:01:30;24.70;54.30
46932;DHT22;32670;51.464;11.964;2023-08-12T00:03:56;24.70;54.30
46932;DHT22;32670;51.464;11.964;2023-08-12T00:06:21;24.70;54.20
46932;DHT22;32670;51.464;11.964;2023-08-12T00:08:47;24.70;54.30
46932;DHT22;32670;51.464;11.964;2023-08-12T00:11:12;24.70;54.30
46932;DHT22;32670;51.464;11.964;2023-08-12T00:13:38;24.70;54.30
46932;DHT22;32670;51.464;11.964;2023-08-12T00:16:03;24.70;54.30
46932;DHT22;32670;51.464;11.964;2023-08-12T00:18:29;24.70;54.30
46932;DHT22;32670;51.464;11.964;2023-08-12T00:20:55;24.70;54.30
46932;DHT22;32670;51.464;11.964;2023-08-12T00:23:20;24.70;54.30
46932;DHT22;32670;51.464;11.964;2023-08-12T00:25:46;24.80;54.40
46932;DHT22;32670;51.464;11.964;2023-08-12T00:28:12;24.70;54.40
46932;DHT22;32670;51.464;11.964;2023-08-12T00:30:38;24.70;54.40
46932;DHT22;32670;51.464;11.964;2023-08-12T00:33:03;24.80;54.50
46932;DHT22;32670;51.464;11.964;2023-08-12T00:35:29;24.70;54.50
46932;DHT22;32670;51.464;11.964;2023-08-12T00:37:54;24.80;54.60
46932;DHT22;32670;51.464;11.964;2023-08-12T00:40:20;24.70;54.60
46932;DHT22;32670;51.464;11.964;2023-08-12T00:42:45;24.70;54.70
46932;DHT22;32670;51.464;11.964;2023-08-12T00:45:12;24.70;54.70
46932;DHT22;32670;51.464;11.964;2023-08-12T00:47:38;24.70;54.70
46932;DHT22;32670;51.464;11.964;2023-08-12T00:50:05;24.70;54.70
46932;DHT22;32670;51.464;11.964;2023-08-12T00:52:31;24.70;54.80
46932;DHT22;32670;51.464;11.964;2023-08-12T00:54:57;24.70;54.80
46932;DHT22;32670;51.464;11.964;2023-08-12T00:57:22;24.70;54.80
46932;DHT22;32670;51.464;11.964;2023-08-12T00:59:49;24.70;54.90
46932;DHT22;32670;51.464;11.964;2023-08-12T01:02:14;24.70;54.80
46932;DHT22;32670;51.464;11.964;2023-08-12T01:04:40;24.70;54.90
46932;DHT22;32670;51.464;11.964;2023-08-12T01:07:05;24.70;54.90
46932;DHT22;32670;51.464;11.964;2023-08-12T01:09:32;24.80;55.00
46932;DHT22;32670;51.464;11.964;2023-08-12T01:12:08;24.70;55.00
46932;DHT22;32670;51.464;11.964;2023-08-12T01:14:45;24.70;55.10
46932;DHT22;32670;51.464;11.964;2023-08-12T01:17:12;24.70;55.10
46932;DHT22;32670;51.464;11.964;2023-08-12T01:19:40;24.70;55.10
46932;DHT22;32670;51.464;11.964;2023-08-12T01:22:11;24.70;55.10
46932;DHT22;32670;51.464;11.964;2023-08-12T01:24:39;24.70;55.20
46932;DHT22;32670;51.464;11.964;2023-08-12T01:27:06;24.70;55.20
46932;DHT22;32670;51.464;11.964;2023-08-12T01:29:33;24.70;55.20
46932;DHT22;32670;51.464;11.964;2023-08-12T01:34:52;24.70;55.30
46932;DHT22;32670;51.464;11.964;2023-08-12T01:37:29;24.70;55.40
46932;DHT22;32670;51.464;11.964;2023-08-12T01:39:56;24.80;55.50
46932;DHT22;32670;51.464;11.964;2023-08-12T01:42:24;24.80;55.50
46932;DHT22;32670;51.464;11.964;2023-08-12T01:44:50;24.70;55.40
46932;DHT22;32670;51.464;11.964;2023-08-12T01:47:16;24.70;55.50
46932;DHT22;32670;51.464;11.964;2023-08-12T01:49:41;24.70;55.60
46932;DHT22;32670;51.464;11.964;2023-08-12T01:52:07;24.70;55.60
46932;DHT22;32670;51.464;11.964;2023-08-12T01:54:33;24.70;55.60
46932;DHT22;32670;51.464;11.964;2023-08-12T01:57:03;24.70;55.70
46932;DHT22;32670;51.464;11.964;2023-08-12T01:59:36;24.70;55.70
46932;DHT22;32670;51.464;11.964;2023-08-12T02:02:02;24.70;55.80
46932;DHT22;32670;51.464;11.964;2023-08-12T02:04:28;24.70;55.80
46932;DHT22;32670;51.464;11.964;2023-08-12T02:06:54;24.70;55.80
46932;DHT22;32670;51.464;11.964;2023-08-12T02:09:20;24.70;55.90
46932;DHT22;32670;51.464;11.964;2023-08-12T02:11:45;24.70;55.90
46932;DHT22;32670;51.464;11.964;2023-08-12T02:14:11;24.70;56.10
46932;DHT22;32670;51.464;11.964;2023-08-12T02:16:36;24.70;56.00
46932;DHT22;32670;51.464;11.964;2023-08-12T02:19:02;24.70;56.10
46932;DHT22;32670;51.464;11.964;2023-08-12T02:21:27;24.80;56.20
46932;DHT22;32670;51.464;11.964;2023-08-12T02:23:53;24.70;56.20
46932;DHT22;32670;51.464;11.964;2023-08-12T02:26:19;24.70;56.20
46932;DHT22;32670;51.464;11.964;2023-08-12T02:28:44;24.70;56.20
46932;DHT22;32670;51.464;11.964;2023-08-12T02:31:10;24.70;56.20
46932;DHT22;32670;51.464;11.964;2023-08-12T02:33:35;24.70;56.20
46932;DHT22;32670;51.464;11.964;2023-08-12T02:36:01;24.70;56.20
46932;DHT22;32670;51.464;11.964;2023-08-12T02:38:26;24.70;56.30
46932;DHT22;32670;51.464;11.964;2023-08-12T02:40:51;24.70;56.30
46932;DHT22;32670;51.464;11.964;2023-08-12T02:43:17;24.70;56.40
46932;DHT22;32670;51.464;11.964;2023-08-12T02:45:43;24.80;56.50
46932;DHT22;32670;51.464;11.964;2023-08-12T02:48:11;24.70;56.50
46932;DHT22;32670;51.464;11.964;2023-08-12T02:50:37;24.70;56.50
46932;DHT22;32670;51.464;11.964;2023-08-12T02:53:04;24.70;56.60
46932;DHT22;32670;51.464;11.964;2023-08-12T02:55:29;24.70;56.60
46932;DHT22;32670;51.464;11.964;2023-08-12T02:57:57;24.70;56.70
46932;DHT22;32670;51.464;11.964;2023-08-12T03:00:22;24.70;56.70
46932;DHT22;32670;51.464;11.964;2023-08-12T03:02:48;24.80;56.80
46932;DHT22;32670;51.464;11.964;2023-08-12T03:05:13;24.80;56.80
46932;DHT22;32670;51.464;11.964;2023-08-12T03:07:39;24.80;56.80
46932;DHT22;32670;51.464;11.964;2023-08-12T03:10:05;24.70;56.80
46932;DHT22;32670;51.464;11.964;2023-08-12T03:12:31;24.70;56.90
46932;DHT22;32670;51.464;11.964;2023-08-12T03:14:56;24.80;57.00
46932;DHT22;32670;51.464;11.964;2023-08-12T03:17:22;24.70;56.90
46932;DHT22;32670;51.464;11.964;2023-08-12T03:19:47;24.70;57.00
46932;DHT22;32670;51.464;11.964;2023-08-12T03:22:13;24.80;57.00
46932;DHT22;32670;51.464;11.964;2023-08-12T03:24:39;24.70;57.00
46932;DHT22;32670;51.464;11.964;2023-08-12T03:27:04;24.80;57.10
46932;DHT22;32670;51.464;11.964;2023-08-12T03:29:30;24.80;57.10
46932;DHT22;32670;51.464;11.964;2023-08-12T03:31:55;24.80;57.10
46932;DHT22;32670;51.464;11.964;2023-08-12T03:34:21;24.80;57.10
46932;DHT22;32670;51.464;11.964;2023-08-12T03:36:46;24.70;57.10
46932;DHT22;32670;51.464;11.964;2023-08-12T03:39:13;24.70;57.10
46932;DHT22;32670;51.464;11.964;2023-08-12T03:41:39;24.70;57.20
46932;DHT22;32670;51.464;11.964;2023-08-12T03:44:05;24.80;57.20
46932;DHT22;32670;51.464;11.964;2023-08-12T03:46:30;24.70;57.20
46932;DHT22;32670;51.464;11.964;2023-08-12T03:48:56;24.70;57.20
46932;DHT22;32670;51.464;11.964;2023-08-12T03:51:21;24.70;57.20
46932;DHT22;32670;51.464;11.964;2023-08-12T03:53:47;24.70;57.20
46932;DHT22;32670;51.464;11.964;2023-08-12T03:56:13;24.70;57.30
46932;DHT22;32670;51.464;11.964;2023-08-12T03:58:40;24.80;57.30
46932;DHT22;32670;51.464;11.964;2023-08-12T04:01:06;24.70;57.30
46932;DHT22;32670;51.464;11.964;2023-08-12T04:03:31;24.70;57.30
46932;DHT22;32670;51.464;11.964;2023-08-12T04:05:57;24.70;57.40
46932;DHT22;32670;51.464;11.964;2023-08-12T04:08:23;24.80;57.70
46932;DHT22;32670;51.464;11.964;2023-08-12T04:10:50;24.80;57.20
46932;DHT22;32670;51.464;11.964;2023-08-12T04:13:15;24.80;57.10
46932;DHT22;32670;51.464;11.964;2023-08-12T04:15:41;24.90;57.00
46932;DHT22;32670;51.464;11.964;2023-08-12T04:18:07;24.90;56.80
46932;DHT22;32670;51.464;11.964;2023-08-12T04:20:32;24.90;56.70
46932;DHT22;32670;51.464;11.964;2023-08-12T04:22:58;24.90;56.60
46932;DHT22;32670;51.464;11.964;2023-08-12T04:25:24;24.90;56.60
46932;DHT22;32670;51.464;11.964;2023-08-12T04:27:49;24.90;56.60
46932;DHT22;32670;51.464;11.964;2023-08-12T04:30:18;24.90;56.70
46932;DHT22;32670;51.464;11.964;2023-08-12T04:32:44;24.90;56.40
46932;DHT22;32670;51.464;11.964;2023-08-12T04:35:09;24.90;56.40
46932;DHT22;32670;51.464;11.964;2023-08-12T04:37:36;24.90;56.30
46932;DHT22;32670;51.464;11.964;2023-08-12T04:40:02;24.90;56.20
46932;DHT22;32670;51.464;11.964;2023-08-12T04:42:30;24.90;56.30
46932;DHT22;32670;51.464;11.964;2023-08-12T04:44:55;24.90;56.30
46932;DHT22;32670;51.464;11.964;2023-08-12T04:47:21;24.90;56.30
46932;DHT22;32670;51.464;11.964;2023-08-12T04:49:46;24.90;56.20
46932;DHT22;32670;51.464;11.964;2023-08-12T04:52:12;24.90;56.20
46932;DHT22;32670;51.464;11.964;2023-08-12T04:54:37;24.90;56.20
46932;DHT22;32670;51.464;11.964;2023-08-12T04:57:03;24.90;56.40
46932;DHT22;32670;51.464;11.964;2023-08-12T04:59:28;24.90;56.20
46932;DHT22;32670;51.464;11.964;2023-08-12T05:01:54;24.90;56.40
46932;DHT22;32670;51.464;11.964;2023-08-12T05:04:19;24.90;56.40
46932;DHT22;32670;51.464;11.964;2023-08-12T05:06:45;24.90;56.20
46932;DHT22;32670;51.464;11.964;2023-08-12T05:09:10;24.90;56.20
46932;DHT22;32670;51.464;11.964;2023-08-12T05:11:36;24.90;56.20
46932;DHT22;32670;51.464;11.964;2023-08-12T05:14:01;24.90;56.20
46932;DHT22;32670;51.464;11.964;2023-08-12T05:16:27;24.90;56.60
46932;DHT22;32670;51.464;11.964;2023-08-12T05:18:54;24.90;56.50
46932;DHT22;32670;51.464;11.964;2023-08-12T05:21:19;24.90;56.50
46932;DHT22;32670;51.464;11.964;2023-08-12T05:23:45;24.90;57.00
46932;DHT22;32670;51.464;11.964;2023-08-12T05:26:10;24.90;56.50
46932;DHT22;32670;51.464;11.964;2023-08-12T05:28:36;24.80;56.50
46932;DHT22;32670;51.464;11.964;2023-08-12T05:31:01;24.80;56.60
46932;DHT22;32670;51.464;11.964;2023-08-12T05:33:27;24.80;56.70
46932;DHT22;32670;51.464;11.964;2023-08-12T05:35:52;24.80;56.80
46932;DHT22;32670;51.464;11.964;2023-08-12T05:38:18;24.70;56.80
46932;DHT22;32670;51.464;11.964;2023-08-12T05:40:43;24.70;56.90
46932;DHT22;32670;51.464;11.964;2023-08-12T05:43:09;24.70;57.10
46932;DHT22;32670;51.464;11.964;2023-08-12T05:45:34;24.60;57.00
46932;DHT22;32670;51.464;11.964;2023-08-12T05:48:00;24.60;57.10
46932;DHT22;32670;51.464;11.964;2023-08-12T05:50:25;24.60;57.20
46932;DHT22;32670;51.464;11.964;2023-08-12T05:52:51;24.60;57.20
46932;DHT22;32670;51.464;11.964;2023-08-12T05:55:16;24.60;57.40
46932;DHT22;32670;51.464;11.964;2023-08-12T05:57:42;24.60;57.40
46932;DHT22;32670;51.464;11.964;2023-08-12T06:00:07;24.60;57.40
46932;DHT22;32670;51.464;11.964;2023-08-12T06:02:33;24.60;57.50
46932;DHT22;32670;51.464;11.964;2023-08-12T06:04:59;24.60;57.60
46932;DHT22;32670;51.464;11.964;2023-08-12T06:07:24;24.50;57.70
46932;DHT22;32670;51.464;11.964;2023-08-12T06:09:50;24.50;57.90
46932;DHT22;32670;51.464;11.964;2023-08-12T06:12:16;24.50;58.10
46932;DHT22;32670;51.464;11.964;2023-08-12T06:14:41;24.50;58.00
46932;DHT22;32670;51.464;11.964;2023-08-12T06:17:07;24.50;58.00
46932;DHT22;32670;51.464;11.964;2023-08-12T06:19:33;24.50;58.00
46932;DHT22;32670;51.464;11.964;2023-08-12T06:21:58;24.50;58.10
46932;DHT22;32670;51.464;11.964;2023-08-12T06:24:24;24.50;58.00
46932;DHT22;32670;51.464;11.964;2023-08-12T06:26:49;24.50;58.00
46932;DHT22;32670;51.464;11.964;2023-08-12T06:29:15;24.50;58.00
46932;DHT22;32670;51.464;11.964;2023-08-12T06:31:41;24.50;58.00
46932;DHT22;32670;51.464;11.964;2023-08-12T06:34:06;24.50;58.00
46932;DHT22;32670;51.464;11.964;2023-08-12T06:36:32;24.50;58.00
46932;DHT22;32670;51.464;11.964;2023-08-12T06:38:57;24.50;58.10
46932;DHT22;32670;51.464;11.964;2023-08-12T06:41:23;24.50;58.20
46932;DHT22;32670;51.464;11.964;2023-08-12T06:43:48;24.50;58.10
46932;DHT22;32670;51.464;11.964;2023-08-12T06:46:14;24.60;57.90
46932;DHT22;32670;51.464;11.964;2023-08-12T06:48:39;24.60;57.70
46932;DHT22;32670;51.464;11.964;2023-08-12T06:51:05;24.60;57.50
46932;DHT22;32670;51.464;11.964;2023-08-12T06:53:36;24.60;57.30
46932;DHT22;32670;51.464;11.964;2023-08-12T06:56:02;24.70;57.10
46932;DHT22;32670;51.464;11.964;2023-08-12T06:58:28;24.60;57.00
46932;DHT22;32670;51.464;11.964;2023-08-12T07:00:53;24.60;56.80
46932;DHT22;32670;51.464;11.964;2023-08-12T07:03:19;24.70;56.70
46932;DHT22;32670;51.464;11.964;2023-08-12T07:05:44;24.70;56.70
46932;DHT22;32670;51.464;11.964;2023-08-12T07:08:10;24.70;56.70
46932;DHT22;32670;51.464;11.964;2023-08-12T07:10:39;24.70;56.60
46932;DHT22;32670;51.464;11.964;2023-08-12T07:13:05;24.70;56.50
46932;DHT22;32670;51.464;11.964;2023-08-12T07:15:31;24.70;56.50
46932;DHT22;32670;51.464;11.964;2023-08-12T07:17:56;24.70;56.40
46932;DHT22;32670;51.464;11.964;2023-08-12T07:20:24;24.70;56.30
46932;DHT22;32670;51.464;11.964;2023-08-12T07:22:49;24.70;56.30
46932;DHT22;32670;51.464;11.964;2023-08-12T07:25:15;24.70;56.20
46932;DHT22;32670;51.464;11.964;2023-08-12T07:27:40;24.70;56.20
46932;DHT22;32670;51.464;11.964;2023-08-12T07:30:07;24.70;56.10
46932;DHT22;32670;51.464;11.964;2023-08-12T07:32:33;24.70;56.10
46932;DHT22;32670;51.464;11.964;2023-08-12T07:34:58;24.70;56.00
46932;DHT22;32670;51.464;11.964;2023-08-12T07:37:25;24.70;56.00
46932;DHT22;32670;51.464;11.964;2023-08-12T07:39:50;24.70;56.00
46932;DHT22;32670;51.464;11.964;2023-08-12T07:42:16;24.70;55.90
46932;DHT22;32670;51.464;11.964;2023-08-12T07:44:41;24.70;55.90
46932;DHT22;32670;51.464;11.964;2023-08-12T07:47:07;24.70;55.90
46932;DHT22;32670;51.464;11.964;2023-08-12T07:49:32;24.70;55.80
46932;DHT22;32670;51.464;11.964;2023-08-12T07:51:58;24.70;55.80
46932;DHT22;32670;51.464;11.964;2023-08-12T07:54:23;24.70;55.80
46932;DHT22;32670;51.464;11.964;2023-08-12T07:56:49;24.70;55.80
46932;DHT22;32670;51.464;11.964;2023-08-12T07:59:14;24.80;55.70
46932;DHT22;32670;51.464;11.964;2023-08-12T08:01:41;24.70;55.70
46932;DHT22;32670;51.464;11.964;2023-08-12T08:04:06;24.70;55.70
46932;DHT22;32670;51.464;11.964;2023-08-12T08:06:32;24.70;55.60
46932;DHT22;32670;51.464;11.964;2023-08-12T08:08:57;24.70;55.60
46932;DHT22;32670;51.464;11.964;2023-08-12T08:11:24;24.70;55.60
46932;DHT22;32670;51.464;11.964;2023-08-12T08:13:50;24.80;55.60
46932;DHT22;32670;51.464;11.964;2023-08-12T08:16:15;24.70;55.60
46932;DHT22;32670;51.464;11.964;2023-08-12T08:18:40;24.70;55.50
46932;DHT22;32670;51.464;11.964;2023-08-12T08:21:06;24.80;55.50
46932;DHT22;32670;51.464;11.964;2023-08-12T08:23:32;24.70;55.40
46932;DHT22;32670;51.464;11.964;2023-08-12T08:25:57;24.70;55.40
46932;DHT22;32670;51.464;11.964;2023-08-12T08:28:23;24.80;55.40
46932;DHT22;32670;51.464;11.964;2023-08-12T08:30:48;24.80;56.00
46932;DHT22;32670;51.464;11.964;2023-08-12T08:33:14;24.70;55.30
46932;DHT22;32670;51.464;11.964;2023-08-12T08:35:39;24.70;55.40
46932;DHT22;32670;51.464;11.964;2023-08-12T08:38:05;24.70;55.30
46932;DHT22;32670;51.464;11.964;2023-08-12T08:40:30;24.70;55.30
46932;DHT22;32670;51.464;11.964;2023-08-12T08:42:58;24.70;55.30
46932;DHT22;32670;51.464;11.964;2023-08-12T08:45:25;24.70;55.30
46932;DHT22;32670;51.464;11.964;2023-08-12T08:47:51;24.70;55.20
46932;DHT22;32670;51.464;11.964;2023-08-12T08:50:17;24.70;55.30
46932;DHT22;32670;51.464;11.964;2023-08-12T08:52:43;24.70;55.60
46932;DHT22;32670;51.464;11.964;2023-08-12T08:55:08;24.70;55.50
46932;DHT22;32670;51.464;11.964;2023-08-12T08:57:35;24.70;55.60
46932;DHT22;32670;51.464;11.964;2023-08-12T09:00:01;24.70;55.60
46932;DHT22;32670;51.464;11.964;2023-08-12T09:02:27;24.70;55.50
46932;DHT22;32670;51.464;11.964;2023-08-12T09:04:52;24.70;55.30
46932;DHT22;32670;51.464;11.964;2023-08-12T09:07:19;24.70;55.30
46932;DHT22;32670;51.464;11.964;2023-08-12T09:09:46;24.70;55.20
46932;DHT22;32670;51.464;11.964;2023-08-12T09:12:14;24.80;55.30
46932;DHT22;32670;51.464;11.964;2023-08-12T09:14:41;24.70;55.20
46932;DHT22;32670;51.464;11.964;2023-08-12T09:17:07;24.80;55.20
46932;DHT22;32670;51.464;11.964;2023-08-12T09:19:33;24.80;55.70
46932;DHT22;32670;51.464;11.964;2023-08-12T09:21:58;24.80;55.20
46932;DHT22;32670;51.464;11.964;2023-08-12T09:24:27;24.70;55.10
46932;DHT22;32670;51.464;11.964;2023-08-12T09:26:54;24.80;55.20
46932;DHT22;32670;51.464;11.964;2023-08-12T09:29:26;24.80;55.10
46932;DHT22;32670;51.464;11.964;2023-08-12T09:31:54;24.70;55.00
46932;DHT22;32670;51.464;11.964;2023-08-12T09:34:19;24.80;55.00
46932;DHT22;32670;51.464;11.964;2023-08-12T09:36:46;24.80;54.90
46932;DHT22;32670;51.464;11.964;2023-08-12T09:39:13;24.80;55.00
46932;DHT22;32670;51.464;11.964;2023-08-12T09:41:38;24.80;55.00
46932;DHT22;32670;51.464;11.964;2023-08-12T09:44:05;24.80;55.00
46932;DHT22;32670;51.464;11.964;2023-08-12T09:46:33;24.80;55.00
46932;DHT22;32670;51.464;11.964;2023-08-12T09:48:59;24.80;55.00
46932;DHT22;32670;51.464;11.964;2023-08-12T09:51:24;24.70;54.90
46932;DHT22;32670;51.464;11.964;2023-08-12T09:53:51;24.80;54.90
46932;DHT22;32670;51.464;11.964;2023-08-12T09:56:23;24.80;55.00
46932;DHT22;32670;51.464;11.964;2023-08-12T09:58:50;24.80;55.00
46932;DHT22;32670;51.464;11.964;2023-08-12T10:01:20;24.80;55.00
46932;DHT22;32670;51.464;11.964;2023-08-12T10:03:49;24.80;55.00
46932;DHT22;32670;51.464;11.964;2023-08-12T10:06:15;24.80;55.00
46932;DHT22;32670;51.464;11.964;2023-08-12T10:08:42;24.70;54.90
46932;DHT22;32670;51.464;11.964;2023-08-12T10:11:08;24.80;55.00
46932;DHT22;32670;51.464;11.964;2023-08-12T10:13:35;24.80;54.90
46932;DHT22;32670;51.464;11.964;2023-08-12T10:16:01;24.80;54.90
46932;DHT22;32670;51.464;11.964;2023-08-12T10:18:28;24.80;54.90
46932;DHT22;32670;51.464;11.964;2023-08-12T10:20:57;24.80;54.90
46932;DHT22;32670;51.464;11.964;2023-08-12T10:23:24;24.80;54.90
46932;DHT22;32670;51.464;11.964;2023-08-12T10:25:53;24.80;54.80
46932;DHT22;32670;51.464;11.964;2023-08-12T10:28:20;24.80;54.80
46932;DHT22;32670;51.464;11.964;2023-08-12T10:30:46;24.80;54.80
46932;DHT22;32670;51.464;11.964;2023-08-12T10:33:14;24.80;54.80
46932;DHT22;32670;51.464;11.964;2023-08-12T10:35:42;24.80;54.70
46932;DHT22;32670;51.464;11.964;2023-08-12T10:38:08;24.80;54.70
46932;DHT22;32670;51.464;11.964;2023-08-12T10:40:34;24.80;54.70
46932;DHT22;32670;51.464;11.964;2023-08-12T10:42:59;24.80;54.70
46932;DHT22;32670;51.464;11.964;2023-08-12T10:45:44;24.80;54.50
46932;DHT22;32670;51.464;11.964;2023-08-12T10:48:23;24.80;54.50
46932;DHT22;32670;51.464;11.964;2023-08-12T10:50:52;24.80;54.50
46932;DHT22;32670;51.464;11.964;2023-08-12T10:53:28;24.80;54.40
46932;DHT22;32670;51.464;11.964;2023-08-12T10:56:02;24.80;54.40
46932;DHT22;32670;51.464;11.964;2023-08-12T10:58:54;24.80;54.50
46932;DHT22;32670;51.464;11.964;2023-08-12T11:01:20;24.80;54.30
46932;DHT22;32670;51.464;11.964;2023-08-12T11:03:47;24.80;54.40
46932;DHT22;32670;51.464;11.964;2023-08-12T11:06:13;24.80;54.30
46932;DHT22;32670;51.464;11.964;2023-08-12T11:08:55;24.80;54.30
46932;DHT22;32670;51.464;11.964;2023-08-12T11:11:22;24.80;54.30
46932;DHT22;32670;51.464;11.964;2023-08-12T11:13:56;24.80;54.30
46932;DHT22;32670;51.464;11.964;2023-08-12T11:16:32;24.80;54.30
46932;DHT22;32670;51.464;11.964;2023-08-12T11:19:00;24.80;54.30
46932;DHT22;32670;51.464;11.964;2023-08-12T11:21:25;24.80;54.30
46932;DHT22;32670;51.464;11.964;2023-08-12T11:23:54;24.80;54.30
46932;DHT22;32670;51.464;11.964;2023-08-12T11:26:21;24.80;54.30
46932;DHT22;32670;51.464;11.964;2023-08-12T11:28:48;24.80;54.20
46932;DHT22;32670;51.464;11.964;2023-08-12T11:31:14;24.80;54.20
46932;DHT22;32670;51.464;11.964;2023-08-12T11:33:39;24.80;54.30
46932;DHT22;32670;51.464;11.964;2023-08-12T11:36:05;24.80;54.20
46932;DHT22;32670;51.464;11.964;2023-08-12T11:38:31;24.80;54.20
46932;DHT22;32670;51.464;11.964;2023-08-12T11:40:57;24.90;54.30
46932;DHT22;32670;51.464;11.964;2023-08-12T11:43:26;24.80;54.30
46932;DHT22;32670;51.464;11.964;2023-08-12T11:45:51;24.80;54.20
46932;DHT22;32670;51.464;11.964;2023-08-12T11:48:17;24.80;54.20
46932;DHT22;32670;51.464;11.964;2023-08-12T11:50:42;24.80;54.20
46932;DHT22;32670;51.464;11.964;2023-08-12T11:53:08;24.90;54.20
46932;DHT22;32670;51.464;11.964;2023-08-12T11:55:33;24.90;54.30
46932;DHT22;32670;51.464;11.964;2023-08-12T11:57:59;24.90;54.20
46932;DHT22;32670;51.464;11.964;2023-08-12T12:00:25;24.90;54.20
46932;DHT22;32670;51.464;11.964;2023-08-12T12:02:53;24.90;54.20
46932;DHT22;32670;51.464;11.964;2023-08-12T12:05:21;24.90;54.20
46932;DHT22;32670;51.464;11.964;2023-08-12T12:07:48;24.90;54.20
46932;DHT22;32670;51.464;11.964;2023-08-12T12:10:30;24.90;54.20
46932;DHT22;32670;51.464;11.964;2023-08-12T12:12:56;24.90;54.30
46932;DHT22;32670;51.464;11.964;2023-08-12T12:15:23;24.90;54.20
46932;DHT22;32670;51.464;11.964;2023-08-12T12:17:49;24.90;54.20
46932;DHT22;32670;51.464;11.964;2023-08-12T12:20:15;24.90;54.30
46932;DHT22;32670;51.464;11.964;2023-08-12T12:22:42;24.90;54.40
46932;DHT22;32670;51.464;11.964;2023-08-12T12:25:13;24.90;54.40
46932;DHT22;32670;51.464;11.964;2023-08-12T12:27:41;24.90;54.40
46932;DHT22;32670;51.464;11.964;2023-08-12T12:30:11;24.90;54.90
46932;DHT22;32670;51.464;11.964;2023-08-12T12:32:37;24.90;54.40
46932;DHT22;32670;51.464;11.964;2023-08-12T12:35:03;24.90;54.30
46932;DHT22;32670;51.464;11.964;2023-08-12T12:37:29;24.90;54.30
46932;DHT22;32670;51.464;11.964;2023-08-12T12:39:55;24.90;54.30
46932;DHT22;32670;51.464;11.964;2023-08-12T12:42:21;24.90;54.30
46932;DHT22;32670;51.464;11.964;2023-08-12T12:44:46;24.90;54.30
46932;DHT22;32670;51.464;11.964;2023-08-12T12:47:12;24.90;54.30
46932;DHT22;32670;51.464;11.964;2023-08-12T12:49:41;24.90;54.30
46932;DHT22;32670;51.464;11.964;2023-08-12T12:52:09;24.90;54.30
46932;DHT22;32670;51.464;11.964;2023-08-12T12:54:34;24.90;54.30
46932;DHT22;32670;51.464;11.964;2023-08-12T12:57:00;24.90;54.30
46932;DHT22;32670;51.464;11.964;2023-08-12T12:59:26;24.90;54.30
46932;DHT22;32670;51.464;11.964;2023-08-12T13:01:52;24.90;54.30
46932;DHT22;32670;51.464;11.964;2023-08-12T13:04:18;24.90;54.20
46932;DHT22;32670;51.464;11.964;2023-08-12T13:06:43;24.90;54.20
46932;DHT22;32670;51.464;11.964;2023-08-12T13:09:09;24.90;54.20
46932;DHT22;32670;51.464;11.964;2023-08-12T13:11:34;24.90;54.20
46932;DHT22;32670;51.464;11.964;2023-08-12T13:14:01;25.00;54.30
46932;DHT22;32670;51.464;11.964;2023-08-12T13:16:26;24.90;54.20
46932;DHT22;32670;51.464;11.964;2023-08-12T13:18:52;25.00;54.20
46932;DHT22;32670;51.464;11.964;2023-08-12T13:21:17;25.00;54.20
46932;DHT22;32670;51.464;11.964;2023-08-12T13:23:43;25.00;54.20
46932;DHT22;32670;51.464;11.964;2023-08-12T13:26:08;25.00;54.30
46932;DHT22;32670;51.464;11.964;2023-08-12T13:28:34;25.00;54.30
46932;DHT22;32670;51.464;11.964;2023-08-12T13:30:59;25.00;54.20
46932;DHT22;32670;51.464;11.964;2023-08-12T13:33:25;25.00;54.30
46932;DHT22;32670;51.464;11.964;2023-08-12T13:35:50;25.00;54.20
46932;DHT22;32670;51.464;11.964;2023-08-12T13:38:16;25.00;54.20
46932;DHT22;32670;51.464;11.964;2023-08-12T13:40:42;25.00;54.20
46932;DHT22;32670;51.464;11.964;2023-08-12T13:43:07;25.00;54.20
46932;DHT22;32670;51.464;11.964;2023-08-12T13:45:33;25.00;54.80
46932;DHT22;32670;51.464;11.964;2023-08-12T13:47:58;25.00;54.20
46932;DHT22;32670;51.464;11.964;2023-08-12T13:50:24;25.00;54.20
46932;DHT22;32670;51.464;11.964;2023-08-12T13:52:50;25.00;54.20
46932;DHT22;32670;51.464;11.964;2023-08-12T13:55:16;25.00;54.20
46932;DHT22;32670;51.464;11.964;2023-08-12T13:57:41;25.00;54.20
46932;DHT22;32670;51.464;11.964;2023-08-12T14:00:07;25.00;54.20
46932;DHT22;32670;51.464;11.964;2023-08-12T14:02:36;25.00;54.20
46932;DHT22;32670;51.464;11.964;2023-08-12T14:05:02;25.00;54.20
46932;DHT22;32670;51.464;11.964;2023-08-12T14:07:28;25.00;54.10
46932;DHT22;32670;51.464;11.964;2023-08-12T14:09:53;25.00;54.10
46932;DHT22;32670;51.464;11.964;2023-08-12T14:12:18;25.00;54.10
46932;DHT22;32670;51.464;11.964;2023-08-12T14:14:44;25.00;53.70
46932;DHT22;32670;51.464;11.964;2023-08-12T14:17:10;25.00;54.10
46932;DHT22;32670;51.464;11.964;2023-08-12T14:19:39;25.00;54.10
46932;DHT22;32670;51.464;11.964;2023-08-12T14:22:05;25.00;54.10
46932;DHT22;32670;51.464;11.964;2023-08-12T14:24:30;25.00;54.10
46932;DHT22;32670;51.464;11.964;2023-08-12T14:26:56;25.00;54.10
46932;DHT22;32670;51.464;11.964;2023-08-12T14:29:21;25.00;54.10
46932;DHT22;32670;51.464;11.964;2023-08-12T14:31:46;25.00;54.10
46932;DHT22;32670;51.464;11.964;2023-08-12T14:34:12;25.00;54.10
46932;DHT22;32670;51.464;11.964;2023-08-12T14:36:37;25.00;54.10
46932;DHT22;32670;51.464;11.964;2023-08-12T14:39:03;25.00;54.10
46932;DHT22;32670;51.464;11.964;2023-08-12T14:41:28;25.00;54.60
46932;DHT22;32670;51.464;11.964;2023-08-12T14:43:54;25.00;54.00
46932;DHT22;32670;51.464;11.964;2023-08-12T14:46:19;25.00;54.00
46932;DHT22;32670;51.464;11.964;2023-08-12T14:48:45;25.00;54.00
46932;DHT22;32670;51.464;11.964;2023-08-12T14:51:10;25.00;54.10
46932;DHT22;32670;51.464;11.964;2023-08-12T14:53:36;25.00;54.00
46932;DHT22;32670;51.464;11.964;2023-08-12T14:56:01;25.00;54.10
46932;DHT22;32670;51.464;11.964;2023-08-12T14:58:27;25.00;54.00
46932;DHT22;32670;51.464;11.964;2023-08-12T15:00:52;25.00;54.10
46932;DHT22;32670;51.464;11.964;2023-08-12T15:03:18;25.00;54.00
46932;DHT22;32670;51.464;11.964;2023-08-12T15:05:43;25.00;54.00
46932;DHT22;32670;51.464;11.964;2023-08-12T15:08:09;25.00;54.10
46932;DHT22;32670;51.464;11.964;2023-08-12T15:10:34;25.00;54.00
46932;DHT22;32670;51.464;11.964;2023-08-12T15:13:00;25.00;54.10